createdAt,value
2018-02-09T00:01:19.879Z,86.00
2018-02-09T00:03:47.842Z,86.10
2018-02-09T00:06:15.331Z,86.20
2018-02-09T00:08:42.839Z,86.00
2018-02-09T00:11:10.333Z,86.20
2018-02-09T00:13:37.830Z,86.30
2018-02-09T00:16:05.725Z,86.30
2018-02-09T00:18:33.240Z,86.30
2018-02-09T00:21:00.737Z,86.30
2018-02-09T00:23:28.330Z,86.40
2018-02-09T00:25:56.210Z,86.40
2018-02-09T00:28:24.113Z,86.40
2018-02-09T00:30:51.607Z,86.30
2018-02-09T00:33:19.108Z,86.40
2018-02-09T00:35:46.600Z,86.50
2018-02-09T00:38:14.504Z,86.30
2018-02-09T00:40:41.988Z,86.30
2018-02-09T00:43:09.494Z,86.20
2018-02-09T00:45:36.989Z,86.30
2018-02-09T00:48:04.958Z,86.60
2018-02-09T00:50:32.457Z,86.60
2018-02-09T00:52:59.968Z,86.20
2018-02-09T00:55:27.461Z,86.40
2018-02-09T00:57:54.974Z,86.50
2018-02-09T01:00:22.464Z,86.50
2018-02-09T01:02:49.977Z,86.50
2018-02-09T01:05:17.967Z,86.60
2018-02-09T01:07:45.466Z,86.70
2018-02-09T01:10:12.955Z,86.80
2018-02-09T01:12:40.463Z,86.90
2018-02-09T01:15:08.460Z,86.90
2018-02-09T01:17:35.968Z,86.90
2018-02-09T01:20:03.460Z,87.30
2018-02-09T01:22:30.999Z,87.40
2018-02-09T01:24:58.547Z,87.70
2018-02-09T01:27:26.040Z,87.70
2018-02-09T01:29:53.948Z,87.90
2018-02-09T01:32:21.491Z,87.90
2018-02-09T01:34:48.960Z,87.80
2018-02-09T01:37:16.864Z,87.40
2018-02-09T01:39:44.376Z,87.50
2018-02-09T01:42:11.864Z,87.30
2018-02-09T01:44:39.760Z,87.40
2018-02-09T01:47:07.648Z,87.40
2018-02-09T01:49:35.160Z,87.30
2018-02-09T01:52:02.654Z,87.50
2018-02-09T01:54:30.162Z,87.70
2018-02-09T01:56:57.648Z,87.80
2018-02-09T01:59:25.151Z,87.30
2018-02-09T02:01:52.637Z,87.50
2018-02-09T02:04:20.228Z,87.30
2018-02-09T02:06:48.111Z,87.30
2018-02-09T02:09:16.003Z,87.00
2018-02-09T02:11:43.486Z,87.00
2018-02-09T02:14:10.993Z,87.10
2018-02-09T02:16:38.480Z,87.40
2018-02-09T02:19:06.060Z,87.60
2018-02-09T02:21:33.658Z,87.70
2018-02-09T02:24:01.208Z,87.40
2018-02-09T02:26:29.194Z,87.30
2018-02-09T02:28:57.172Z,87.30
2018-02-09T02:31:25.069Z,87.20
2018-02-09T02:33:52.588Z,87.20
2018-02-09T02:36:20.085Z,87.20
2018-02-09T02:38:47.603Z,87.10
2018-02-09T02:41:15.097Z,87.10
2018-02-09T02:43:42.805Z,87.10
2018-02-09T02:46:10.334Z,87.10
2018-02-09T02:48:37.837Z,87.30
2018-02-09T02:51:05.331Z,86.70
2018-02-09T02:53:33.221Z,86.40
2018-02-09T02:56:00.726Z,86.40
2018-02-09T02:58:28.219Z,86.60
2018-02-09T03:00:55.727Z,86.70
2018-02-09T03:03:23.616Z,85.90
2018-02-09T03:05:51.128Z,85.90
2018-02-09T03:08:18.624Z,85.50
2018-02-09T03:10:46.127Z,85.30
2018-02-09T03:13:13.676Z,85.60
2018-02-09T03:15:41.188Z,86.20
2018-02-09T03:18:08.715Z,86.50
2018-02-09T03:20:36.228Z,86.80
2018-02-09T03:23:03.759Z,86.70
2018-02-09T03:25:31.268Z,86.70
2018-02-09T03:27:58.746Z,86.40
2018-02-09T03:30:26.260Z,86.60
2018-02-09T03:32:53.848Z,86.30
2018-02-09T03:35:21.750Z,87.20
2018-02-09T03:37:49.243Z,87.20
2018-02-09T03:40:16.763Z,86.70
2018-02-09T03:42:44.755Z,86.70
2018-02-09T03:45:12.651Z,87.20
2018-02-09T03:47:40.143Z,87.10
2018-02-09T03:50:07.648Z,87.40
2018-02-09T03:52:35.147Z,87.30
2018-02-09T03:55:03.038Z,87.50
2018-02-09T03:57:30.932Z,87.40
2018-02-09T03:59:58.450Z,87.40
2018-02-09T04:02:25.939Z,87.80
2018-02-09T04:04:53.448Z,87.90
2018-02-09T04:07:20.951Z,88.10
2018-02-09T04:09:48.458Z,87.90
2018-02-09T04:12:16.340Z,87.90
2018-02-09T04:14:44.304Z,87.70
2018-02-09T04:17:11.792Z,87.70
2018-02-09T04:19:39.680Z,87.40
2018-02-09T04:22:07.578Z,87.00
2018-02-09T04:24:35.120Z,87.00
2018-02-09T04:27:03.024Z,87.40
2018-02-09T04:29:30.589Z,87.30
2018-02-09T04:31:58.110Z,87.20
2018-02-09T04:34:25.609Z,86.70
2018-02-09T04:36:53.115Z,86.10
2018-02-09T04:39:20.602Z,86.10
2018-02-09T04:41:48.114Z,86.30
2018-02-09T04:44:15.609Z,86.20
2018-02-09T04:46:43.508Z,86.40
2018-02-09T04:49:11.053Z,86.40
2018-02-09T04:51:38.964Z,86.70
2018-02-09T04:54:06.462Z,86.60
2018-02-09T04:56:33.972Z,86.20
2018-02-09T04:59:01.860Z,85.90
2018-02-09T05:01:29.768Z,86.00
2018-02-09T05:03:57.255Z,86.00
2018-02-09T05:06:24.772Z,86.00
2018-02-09T05:08:52.251Z,85.90
2018-02-09T05:11:20.151Z,86.20
2018-02-09T05:13:47.655Z,86.20
2018-02-09T05:16:15.158Z,86.60
2018-02-09T05:18:43.443Z,86.50
2018-02-09T05:21:10.943Z,86.50
2018-02-09T05:23:38.432Z,86.20
2018-02-09T05:26:05.945Z,86.40
2018-02-09T05:28:33.527Z,85.80
2018-02-09T05:31:01.103Z,86.60
2018-02-09T05:33:28.674Z,86.90
2018-02-09T05:35:56.184Z,86.80
2018-02-09T05:38:23.663Z,86.70
2018-02-09T05:40:51.212Z,87.00
2018-02-09T05:43:18.701Z,86.90
2018-02-09T05:45:46.191Z,86.60
2018-02-09T05:48:13.690Z,86.60
2018-02-09T05:50:41.188Z,86.50
2018-02-09T05:53:09.095Z,86.50
2018-02-09T05:55:36.628Z,86.50
2018-02-09T05:58:04.608Z,86.60
2018-02-09T06:00:32.495Z,86.50
2018-02-09T06:03:00.464Z,86.60
2018-02-09T06:05:27.957Z,86.60
2018-02-09T06:07:55.856Z,86.80
2018-02-09T06:10:23.338Z,86.80
2018-02-09T06:12:50.839Z,86.30
2018-02-09T06:15:18.437Z,86.80
2018-02-09T06:17:46.402Z,86.70
2018-02-09T06:20:13.895Z,86.70
2018-02-09T06:22:41.855Z,86.90
2018-02-09T06:25:09.352Z,86.90
2018-02-09T06:27:37.255Z,86.20
2018-02-09T06:30:04.738Z,86.20
2018-02-09T06:32:32.248Z,86.30
2018-02-09T06:34:59.739Z,86.30
2018-02-09T06:37:27.639Z,86.70
2018-02-09T06:39:55.141Z,86.70
2018-02-09T06:42:22.648Z,86.90
2018-02-09T06:44:50.527Z,86.70
2018-02-09T06:47:18.498Z,86.70
2018-02-09T06:49:45.986Z,86.70
2018-02-09T06:52:13.887Z,86.30
2018-02-09T06:54:41.443Z,86.30
2018-02-09T06:57:09.343Z,86.50
2018-02-09T06:59:36.830Z,86.50
2018-02-09T07:02:04.341Z,86.40
2018-02-09T07:04:31.836Z,86.80
2018-02-09T07:06:59.741Z,87.20
2018-02-09T07:09:27.227Z,87.20
2018-02-09T07:11:54.706Z,87.50
2018-02-09T07:14:22.211Z,87.80
2018-02-09T07:16:50.103Z,88.00
2018-02-09T07:19:18.008Z,88.20
2018-02-09T07:21:45.500Z,88.20
2018-02-09T07:24:13.014Z,88.20
2018-02-09T07:26:40.505Z,88.30
2018-02-09T07:29:08.018Z,88.80
2018-02-09T07:31:35.507Z,88.90
2018-02-09T07:34:03.013Z,89.00
2018-02-09T07:36:30.512Z,89.00
2018-02-09T07:38:58.023Z,89.30
2018-02-09T07:41:25.516Z,89.30
2018-02-09T07:43:53.496Z,89.40
2018-02-09T07:46:21.382Z,89.20
2018-02-09T07:48:49.295Z,89.20
2018-02-09T07:51:16.791Z,89.20
2018-02-09T07:53:44.286Z,89.20
2018-02-09T07:56:11.785Z,89.40
2018-02-09T07:58:39.297Z,89.40
2018-02-09T08:01:06.788Z,89.30
2018-02-09T08:03:34.303Z,89.10
2018-02-09T08:06:01.801Z,89.30
2018-02-09T08:08:29.308Z,89.70
2018-02-09T08:10:56.883Z,89.60
2018-02-09T08:13:24.467Z,89.70
2018-02-09T08:15:52.351Z,90.00
2018-02-09T08:18:19.860Z,90.00
2018-02-09T08:20:47.352Z,90.00
2018-02-09T08:23:14.849Z,90.20
2018-02-09T08:25:42.340Z,90.40
2018-02-09T08:28:10.239Z,90.50
2018-02-09T08:30:37.787Z,90.50
2018-02-09T08:33:05.760Z,90.30
2018-02-09T08:35:33.739Z,90.20
2018-02-09T08:38:01.224Z,90.20
2018-02-09T08:40:29.286Z,90.40
2018-02-09T08:42:56.773Z,90.40
2018-02-09T08:45:24.679Z,94.30
2018-02-09T08:47:52.168Z,94.30
2018-02-09T08:50:19.671Z,88.10
2018-02-09T08:52:47.163Z,88.10
2018-02-09T08:55:15.072Z,89.10
2018-02-09T08:57:42.560Z,89.10
2018-02-09T09:00:10.249Z,89.70
2018-02-09T09:02:37.736Z,90.10
2018-02-09T09:05:05.251Z,89.70
2018-02-09T09:07:32.744Z,89.30
2018-02-09T09:10:00.248Z,89.60
2018-02-09T09:12:27.740Z,89.30
2018-02-09T09:14:55.666Z,88.40
2018-02-09T09:17:23.150Z,88.40
2018-02-09T09:19:50.655Z,88.30
2018-02-09T09:22:18.228Z,88.00
2018-02-09T09:24:46.132Z,87.00
2018-02-09T09:27:13.620Z,87.00
2018-02-09T09:29:41.138Z,87.70
2018-02-09T09:32:08.729Z,87.80
2018-02-09T09:34:36.256Z,86.80
2018-02-09T09:37:03.738Z,86.40
2018-02-09T09:39:31.235Z,86.40
2018-02-09T09:41:59.119Z,86.30
2018-02-09T09:44:27.095Z,86.10
2018-02-09T09:46:54.580Z,86.10
2018-02-09T09:49:22.552Z,84.70
2018-02-09T09:51:50.503Z,85.30
2018-02-09T09:54:18.028Z,85.30
2018-02-09T09:56:45.584Z,84.00
2018-02-09T09:59:13.478Z,83.60
2018-02-09T10:01:40.962Z,83.60
2018-02-09T10:04:08.487Z,83.20
2018-02-09T10:06:35.995Z,82.60
2018-02-09T10:09:03.483Z,82.10
2018-02-09T10:11:30.988Z,80.50
2018-02-09T10:13:58.571Z,80.40
2018-02-09T10:16:26.080Z,80.70
2018-02-09T10:18:53.563Z,81.50
2018-02-09T10:21:21.096Z,81.10
2018-02-09T10:23:48.983Z,81.00
2018-02-09T10:26:16.879Z,81.80
2018-02-09T10:28:44.424Z,81.80
2018-02-09T10:31:12.320Z,79.70
2018-02-09T10:33:39.803Z,79.70
2018-02-09T10:36:07.307Z,80.10
2018-02-09T10:38:34.816Z,80.10
2018-02-09T10:41:02.744Z,81.10
2018-02-09T10:43:30.262Z,81.10
2018-02-09T10:45:57.840Z,80.20
2018-02-09T10:48:25.728Z,79.90
2018-02-09T10:50:53.635Z,79.50
2018-02-09T10:53:21.123Z,79.50
2018-02-09T10:55:48.647Z,79.90
2018-02-09T10:58:16.540Z,81.00
2018-02-09T11:00:49.793Z,81.00
2018-02-09T11:03:17.281Z,81.00
2018-02-09T11:05:44.792Z,81.40
2018-02-09T11:08:12.280Z,82.30
2018-02-09T11:10:47.432Z,82.30
2018-02-09T11:13:15.874Z,82.30
2018-02-09T11:15:43.442Z,83.00
2018-02-09T11:18:10.944Z,82.60
2018-02-09T11:20:38.468Z,82.80
2018-02-09T11:23:05.972Z,82.60
2018-02-09T11:25:33.949Z,82.30
2018-02-09T11:28:01.829Z,81.80
2018-02-09T11:30:29.727Z,82.90
2018-02-09T11:32:57.242Z,82.90
2018-02-09T11:35:24.740Z,81.90
2018-02-09T11:37:52.226Z,81.40
2018-02-09T11:40:20.200Z,81.50
2018-02-09T11:42:48.096Z,80.30
2018-02-09T11:45:15.642Z,80.30
2018-02-09T11:47:43.152Z,80.70
2018-02-09T11:50:10.643Z,80.30
2018-02-09T11:52:38.143Z,80.10
2018-02-09T11:55:05.622Z,80.40
2018-02-09T11:57:33.120Z,79.60
2018-02-09T12:00:00.595Z,80.10
2018-02-09T12:02:28.090Z,79.20
2018-02-09T12:04:55.575Z,79.30
2018-02-09T12:07:23.088Z,79.30
2018-02-09T12:09:50.971Z,80.40
2018-02-09T12:12:18.944Z,81.00
2018-02-09T12:14:46.823Z,81.30
2018-02-09T12:17:14.794Z,80.40
2018-02-09T12:19:42.284Z,80.40
2018-02-09T12:22:10.182Z,79.80
2018-02-09T12:24:37.658Z,79.80
2018-02-09T12:27:05.156Z,79.50
2018-02-09T12:29:32.646Z,79.00
2018-02-09T12:32:00.139Z,79.00
2018-02-09T12:34:28.011Z,78.90
2018-02-09T12:36:55.584Z,78.90
2018-02-09T12:39:23.069Z,78.20
2018-02-09T12:41:50.950Z,78.60
2018-02-09T12:44:18.833Z,78.50
2018-02-09T12:46:46.795Z,77.80
2018-02-09T12:49:14.369Z,77.80
2018-02-09T12:51:41.885Z,77.30
2018-02-09T12:54:09.368Z,77.30
2018-02-09T12:56:36.879Z,77.90
2018-02-09T12:59:04.361Z,78.00
2018-02-09T13:01:32.251Z,77.80
2018-02-09T13:04:00.217Z,77.40
2018-02-09T13:06:28.100Z,77.80
2018-02-09T13:08:56.100Z,77.50
2018-02-09T13:11:23.643Z,77.50
2018-02-09T13:13:51.143Z,77.20
2018-02-09T13:16:18.636Z,77.00
2018-02-09T13:18:48.774Z,76.70
2018-02-09T13:21:16.260Z,76.30
2018-02-09T13:23:55.716Z,76.90
2018-02-09T13:26:23.191Z,77.20
2018-02-09T13:28:57.552Z,78.30
2018-02-09T13:31:25.476Z,78.10
2018-02-09T13:33:53.012Z,78.10
2018-02-09T13:36:32.820Z,77.40
2018-02-09T13:39:00.333Z,77.40
2018-02-09T13:41:28.230Z,77.80
2018-02-09T13:43:55.737Z,77.80
2018-02-09T13:46:23.218Z,78.50
2018-02-09T13:48:50.742Z,78.40
2018-02-09T13:51:19.104Z,78.40
2018-02-09T13:53:46.719Z,78.20
2018-02-09T13:56:14.195Z,77.80
2018-02-09T13:58:41.792Z,77.20
2018-02-09T14:01:09.271Z,77.90
2018-02-09T14:03:36.967Z,78.10
2018-02-09T14:06:04.557Z,78.50
2018-02-09T14:08:32.558Z,78.70
2018-02-09T14:11:00.041Z,78.70
2018-02-09T14:13:27.800Z,78.50
2018-02-09T14:15:55.284Z,78.60
2018-02-09T14:18:23.047Z,78.30
2018-02-09T14:20:50.560Z,78.10
2018-02-09T14:23:18.100Z,78.10
2018-02-09T14:25:45.662Z,77.90
2018-02-09T14:28:13.237Z,78.10
2018-02-09T14:30:40.748Z,77.40
2018-02-09T14:33:08.230Z,76.30
2018-02-09T14:35:35.822Z,76.40
2018-02-09T14:38:03.304Z,77.40
2018-02-09T14:40:31.200Z,78.00
2018-02-09T14:42:58.680Z,78.00
2018-02-09T14:45:26.217Z,77.80
2018-02-09T14:47:53.708Z,78.00
2018-02-09T14:50:21.626Z,78.20
2018-02-09T14:52:49.114Z,78.20
2018-02-09T14:55:16.666Z,78.20
2018-02-09T14:57:44.148Z,78.00
2018-02-09T15:00:11.680Z,78.20
2018-02-09T15:02:39.164Z,78.20
2018-02-09T15:05:06.669Z,78.80
2018-02-09T15:07:34.144Z,78.40
2018-02-09T15:10:01.700Z,78.80
2018-02-09T15:12:29.186Z,79.10
2018-02-09T15:14:56.687Z,79.00
2018-02-09T15:17:24.572Z,79.40
2018-02-09T15:19:52.559Z,79.50
2018-02-09T15:22:20.115Z,79.50
2018-02-09T15:24:48.218Z,79.30
2018-02-09T15:27:15.706Z,79.30
2018-02-09T15:29:43.223Z,79.20
2018-02-09T15:32:11.114Z,79.00
2018-02-09T15:34:38.608Z,79.00
2018-02-09T15:37:06.079Z,79.00
2018-02-09T15:39:33.638Z,78.70
2018-02-09T15:42:01.141Z,78.80
2018-02-09T15:44:28.635Z,78.80
2018-02-09T15:46:56.145Z,78.20
2018-02-09T15:49:24.075Z,78.60
2018-02-09T15:51:51.608Z,78.60
2018-02-09T15:54:19.517Z,79.10
2018-02-09T15:56:47.018Z,79.10
2018-02-09T15:59:14.512Z,79.40
2018-02-09T16:01:42.021Z,79.50
2018-02-09T16:04:09.556Z,79.80
2018-02-09T16:06:37.126Z,79.80
2018-02-09T16:09:04.587Z,79.80
2018-02-09T16:11:32.078Z,79.80
2018-02-09T16:13:59.999Z,80.30
2018-02-09T16:16:27.478Z,80.30
2018-02-09T16:18:54.983Z,80.60
2018-02-09T16:21:22.553Z,80.40
2018-02-09T16:23:50.034Z,81.00
2018-02-09T16:26:17.928Z,81.00
2018-02-09T16:28:45.896Z,81.20
2018-02-09T16:31:13.462Z,81.20
2018-02-09T16:33:40.957Z,81.20
2018-02-09T16:36:08.457Z,81.10
2018-02-09T16:38:35.939Z,81.10
2018-02-09T16:41:03.559Z,81.20
2018-02-09T16:43:31.437Z,80.80
2018-02-09T16:45:59.329Z,81.10
2018-02-09T16:48:26.812Z,81.10
2018-02-09T16:50:54.312Z,81.00
2018-02-09T16:53:21.827Z,80.60
2018-02-09T16:55:49.805Z,80.90
2018-02-09T16:58:17.684Z,81.00
2018-02-09T17:00:45.580Z,81.00
2018-02-09T17:03:13.459Z,80.90
2018-02-09T17:05:41.364Z,81.00
2018-02-09T17:08:08.848Z,81.00
2018-02-09T17:10:36.363Z,80.70
2018-02-09T17:13:03.843Z,80.90
2018-02-09T17:15:31.744Z,80.50
2018-02-09T17:17:59.231Z,80.50
2018-02-09T17:20:26.773Z,80.40
2018-02-09T17:22:54.739Z,80.80
2018-02-09T17:25:22.616Z,81.10
2018-02-09T17:27:50.132Z,81.10
2018-02-09T17:30:17.611Z,81.00
2018-02-09T17:32:45.136Z,81.30
2018-02-09T17:35:13.107Z,81.60
2018-02-09T17:37:40.608Z,81.60
2018-02-09T17:40:08.152Z,81.70
2018-02-09T17:42:35.652Z,82.60
2018-02-09T17:45:03.130Z,82.80
2018-02-09T17:47:30.655Z,82.70
2018-02-09T17:49:58.139Z,82.60
2018-02-09T17:52:26.027Z,83.10
2018-02-09T17:54:53.930Z,83.00
2018-02-09T17:57:21.436Z,83.00
2018-02-09T17:59:48.912Z,83.00
2018-02-09T18:02:16.416Z,82.80
2018-02-09T18:04:44.413Z,83.00
2018-02-09T18:07:11.913Z,83.00
2018-02-09T18:09:39.396Z,82.90
2018-02-09T18:12:06.901Z,85.20
2018-02-09T18:14:34.492Z,75.80
2018-02-09T18:17:02.081Z,77.30
2018-02-09T18:19:29.555Z,78.60
2018-02-09T18:21:57.110Z,79.90
2018-02-09T18:24:24.632Z,81.20
2018-02-09T18:26:52.124Z,82.20
2018-02-09T18:29:19.700Z,83.00
2018-02-09T18:31:47.226Z,83.30
2018-02-09T18:34:14.744Z,83.40
2018-02-09T18:36:42.244Z,83.80
2018-02-09T18:39:09.724Z,83.80
2018-02-09T18:41:37.255Z,83.90
2018-02-09T18:44:04.759Z,83.60
2018-02-09T18:46:32.234Z,83.70
2018-02-09T18:48:59.754Z,83.80
2018-02-09T18:51:27.248Z,84.00
2018-02-09T18:53:55.147Z,84.40
2018-02-09T18:56:22.632Z,84.40
2018-02-09T18:58:50.191Z,84.20
2018-02-09T19:01:17.644Z,84.30
2018-02-09T19:03:45.534Z,84.40
2018-02-09T19:06:13.020Z,84.40
2018-02-09T19:08:40.520Z,84.40
2018-02-09T19:11:08.020Z,84.40
2018-02-09T19:13:35.516Z,84.90
2018-02-09T19:16:02.995Z,84.80
2018-02-09T19:18:30.494Z,84.80
2018-02-09T19:20:57.985Z,84.60
2018-02-09T19:23:25.490Z,84.70
2018-02-09T19:25:53.038Z,84.80
2018-02-09T19:28:20.556Z,84.90
2018-02-09T19:30:48.045Z,85.30
2018-02-09T19:33:15.548Z,85.20
2018-02-09T19:35:43.035Z,85.10
2018-02-09T19:38:10.927Z,85.30
2018-02-09T19:40:38.812Z,85.00
2018-02-09T19:43:06.364Z,85.00
2018-02-09T19:45:34.239Z,85.00
2018-02-09T19:48:02.141Z,85.20
2018-02-09T19:50:29.632Z,85.20
2018-02-09T19:52:57.175Z,85.20
2018-02-09T19:55:25.056Z,85.10
2018-02-09T19:57:52.968Z,84.60
2018-02-09T20:00:20.449Z,84.60
2018-02-09T20:02:47.968Z,84.80
2018-02-09T20:05:15.848Z,84.70
2018-02-09T20:07:43.740Z,84.40
2018-02-09T20:10:11.626Z,84.50
2018-02-09T20:12:39.177Z,84.50
2018-02-09T20:15:07.109Z,84.00
2018-02-09T20:17:34.587Z,84.00
2018-02-09T20:20:02.084Z,83.80
2018-02-09T20:22:29.574Z,84.40
2018-02-09T20:24:57.476Z,84.50
2018-02-09T20:27:24.955Z,84.50
2018-02-09T20:29:52.456Z,84.20
2018-02-09T20:32:19.943Z,84.30
2018-02-09T20:34:47.443Z,84.30
2018-02-09T20:37:15.314Z,84.30
2018-02-09T20:39:43.287Z,84.40
2018-02-09T20:42:10.776Z,84.30
2018-02-09T20:44:38.664Z,84.00
2018-02-09T20:47:06.216Z,83.90
2018-02-09T20:49:34.110Z,84.40
2018-02-09T20:52:01.592Z,84.40
2018-02-09T20:54:29.082Z,84.20
2018-02-09T20:56:56.627Z,84.30
2018-02-09T20:59:24.115Z,84.30
2018-02-09T21:01:51.603Z,84.40
2018-02-09T21:04:19.110Z,84.60
2018-02-09T21:06:46.593Z,84.40
2018-02-09T21:09:14.496Z,84.50
2018-02-09T21:11:41.979Z,84.50
2018-02-09T21:14:09.499Z,84.70
2018-02-09T21:16:36.979Z,84.80
2018-02-09T21:19:04.870Z,84.70
2018-02-09T21:21:32.747Z,84.70
2018-02-09T21:24:00.741Z,84.50
2018-02-09T21:26:28.224Z,84.50
2018-02-09T21:28:55.728Z,84.50
2018-02-09T21:31:23.223Z,84.80
2018-02-09T21:33:50.718Z,84.90
2018-02-09T21:36:18.209Z,84.90
2018-02-09T21:38:45.692Z,84.80
2018-02-09T21:41:13.220Z,84.90
2018-02-09T21:43:41.096Z,84.80
2018-02-09T21:46:08.992Z,84.80
2018-02-09T21:48:36.471Z,84.80
2018-02-09T21:51:04.012Z,84.60
2018-02-09T21:53:31.982Z,84.80
2018-02-09T21:55:59.577Z,84.80
2018-02-09T21:58:27.456Z,84.70
2018-02-09T22:00:55.356Z,84.80
2018-02-09T22:03:22.839Z,84.80
2018-02-09T22:05:50.466Z,84.60
2018-02-09T22:08:17.953Z,84.70
2018-02-09T22:10:45.920Z,85.20
2018-02-09T22:13:13.491Z,85.20
2018-02-09T22:15:40.983Z,85.20
2018-02-09T22:18:08.469Z,85.10
2018-02-09T22:20:36.008Z,84.60
2018-02-09T22:23:03.878Z,84.60
2018-02-09T22:25:31.380Z,84.50
2018-02-09T22:27:58.859Z,84.80
2018-02-09T22:30:26.355Z,85.00
2018-02-09T22:32:53.868Z,85.20
2018-02-09T22:35:21.873Z,85.40
2018-02-09T22:37:49.415Z,85.40
2018-02-09T22:40:16.912Z,85.40
2018-02-09T22:42:44.787Z,85.40
2018-02-09T22:45:12.751Z,85.50
2018-02-09T22:47:40.628Z,85.80
2018-02-09T22:50:08.190Z,85.80
2018-02-09T22:52:35.667Z,85.70
2018-02-09T22:55:03.171Z,86.00
2018-02-09T22:57:30.664Z,86.00
2018-02-09T22:59:58.168Z,85.90
2018-02-09T23:02:25.642Z,85.90
2018-02-09T23:04:53.131Z,85.90
2018-02-09T23:07:21.112Z,86.20
2018-02-09T23:09:49.088Z,86.00
2018-02-09T23:12:16.587Z,86.00
2018-02-09T23:14:44.128Z,86.40
2018-02-09T23:17:11.722Z,86.40
2018-02-09T23:19:39.605Z,86.20
2018-02-09T23:22:07.104Z,86.20
2018-02-09T23:24:34.587Z,86.40
2018-02-09T23:27:02.091Z,86.60
2018-02-09T23:29:29.576Z,86.40
2018-02-09T23:31:57.544Z,86.50
2018-02-09T23:34:25.031Z,86.50
2018-02-09T23:36:52.922Z,86.00
2018-02-09T23:39:20.398Z,86.00
2018-02-09T23:41:47.904Z,86.00
2018-02-09T23:44:15.388Z,86.20
2018-02-09T23:46:42.991Z,86.20
2018-02-09T23:49:10.868Z,86.40
2018-02-09T23:51:38.772Z,86.50
2018-02-09T23:54:06.251Z,86.50
2018-02-09T23:56:33.747Z,86.20
2018-02-09T23:59:01.277Z,86.20
